createdAt,value
2023-09-26T00:00:16.634Z,3.75
2023-09-26T00:02:47.244Z,3.13
2023-09-26T00:05:15.543Z,3.67
2023-09-26T00:07:43.999Z,3.50
2023-09-26T00:10:13.298Z,3.58
2023-09-26T00:12:42.132Z,3.28
2023-09-26T00:15:12.632Z,3.10
2023-09-26T00:17:41.675Z,3.00
2023-09-26T00:20:29.526Z,3.08
2023-09-26T00:22:58.008Z,3.35
2023-09-26T00:25:26.826Z,3.47
2023-09-26T00:27:55.682Z,3.42
2023-09-26T00:30:24.426Z,3.35
2023-09-26T00:32:52.571Z,3.78
2023-09-26T00:35:22.329Z,4.05
2023-09-26T00:37:52.260Z,4.03
2023-09-26T00:40:23.376Z,3.80
2023-09-26T00:42:52.074Z,3.33
2023-09-26T00:45:20.929Z,3.72
2023-09-26T00:47:50.871Z,3.75
2023-09-26T00:50:19.564Z,3.80
2023-09-26T00:52:52.440Z,3.90
2023-09-26T00:55:25.168Z,3.60
2023-09-26T00:57:55.711Z,3.45
2023-09-26T01:00:25.762Z,3.70
2023-09-26T01:02:54.050Z,4.10
2023-09-26T01:05:22.358Z,3.63
2023-09-26T01:07:54.182Z,4.00
2023-09-26T01:10:22.296Z,3.42
2023-09-26T01:12:51.636Z,3.83
2023-09-26T01:15:32.880Z,3.72
2023-09-26T01:18:01.080Z,3.97
2023-09-26T01:20:30.148Z,4.25
2023-09-26T01:23:05.546Z,3.92
2023-09-26T01:25:35.154Z,3.60
2023-09-26T01:28:08.049Z,3.72
2023-09-26T01:30:36.226Z,3.67
2023-09-26T01:33:05.869Z,3.97
2023-09-26T01:35:34.240Z,4.25
2023-09-26T01:38:02.456Z,4.18
2023-09-26T01:40:30.615Z,4.40
2023-09-26T01:43:00.147Z,4.50
2023-09-26T01:45:28.413Z,4.50
2023-09-26T01:47:56.918Z,3.55
2023-09-26T01:50:25.305Z,3.78
2023-09-26T01:52:53.677Z,3.60
2023-09-26T01:55:23.173Z,3.75
2023-09-26T01:57:51.866Z,3.30
2023-09-26T02:00:21.888Z,3.90
2023-09-26T02:02:51.851Z,3.85
2023-09-26T02:05:21.953Z,4.00
2023-09-26T02:07:50.722Z,4.28
2023-09-26T02:10:19.557Z,3.35
2023-09-26T02:12:49.673Z,4.53
2023-09-26T02:15:18.004Z,3.80
2023-09-26T02:17:47.709Z,3.60
2023-09-26T02:20:19.116Z,3.42
2023-09-26T02:22:49.480Z,4.00
2023-09-26T02:25:20.201Z,4.07
2023-09-26T02:27:49.255Z,4.30
2023-09-26T02:30:19.521Z,4.00
2023-09-26T02:32:49.272Z,4.32
2023-09-26T02:35:20.792Z,4.43
2023-09-26T02:37:49.176Z,3.92
2023-09-26T02:40:17.267Z,4.80
2023-09-26T02:42:46.266Z,4.57
2023-09-26T02:45:15.673Z,4.00
2023-09-26T02:47:44.764Z,3.58
2023-09-26T02:50:14.910Z,3.78
2023-09-26T02:52:44.343Z,4.55
2023-09-26T02:55:13.010Z,4.15
2023-09-26T02:57:41.396Z,3.80
2023-09-26T03:00:18.511Z,3.92
2023-09-26T03:02:48.074Z,3.90
2023-09-26T03:05:18.688Z,3.40
2023-09-26T03:07:47.673Z,4.40
2023-09-26T03:10:17.323Z,4.45
2023-09-26T03:12:47.733Z,4.45
2023-09-26T03:15:16.241Z,4.13
2023-09-26T03:17:44.858Z,4.20
2023-09-26T03:20:16.626Z,3.95
2023-09-26T03:22:46.800Z,4.10
2023-09-26T03:25:15.163Z,4.07
2023-09-26T03:27:43.783Z,4.32
2023-09-26T03:30:12.403Z,4.22
2023-09-26T03:32:40.612Z,4.43
2023-09-26T03:35:10.454Z,3.92
2023-09-26T03:37:38.959Z,4.22
2023-09-26T03:40:10.267Z,4.07
2023-09-26T03:42:38.640Z,3.85
2023-09-26T03:45:08.006Z,3.65
2023-09-26T03:47:36.619Z,4.05
2023-09-26T03:50:05.032Z,4.07
2023-09-26T03:52:33.185Z,4.50
2023-09-26T03:55:01.497Z,3.97
2023-09-26T03:57:32.316Z,3.92
2023-09-26T04:00:00.514Z,4.15
2023-09-26T04:02:28.823Z,3.88
2023-09-26T04:04:57.068Z,4.10
2023-09-26T04:07:29.395Z,3.80
2023-09-26T04:09:57.667Z,4.13
2023-09-26T04:12:25.894Z,4.18
2023-09-26T04:14:55.556Z,4.15
2023-09-26T04:17:23.736Z,3.85
2023-09-26T04:19:52.257Z,4.32
2023-09-26T04:22:20.443Z,4.40
2023-09-26T04:24:48.604Z,4.22
2023-09-26T04:27:16.829Z,4.15
2023-09-26T04:29:44.948Z,4.00
2023-09-26T04:32:14.598Z,4.10
2023-09-26T04:34:42.868Z,4.22
2023-09-26T04:37:11.033Z,4.00
2023-09-26T04:39:39.164Z,4.50
2023-09-26T04:42:07.392Z,4.03
2023-09-26T04:44:35.630Z,4.40
2023-09-26T04:47:03.867Z,4.65
2023-09-26T04:49:35.238Z,4.25
2023-09-26T04:52:03.620Z,4.75
2023-09-26T04:54:31.914Z,4.40
2023-09-26T04:57:00.254Z,4.15
2023-09-26T04:59:29.964Z,4.10
2023-09-26T05:01:58.218Z,4.00
2023-09-26T05:04:26.986Z,4.55
2023-09-26T05:06:56.663Z,4.65
2023-09-26T05:09:25.258Z,4.85
2023-09-26T05:11:53.455Z,4.22
2023-09-26T05:14:21.784Z,4.40
2023-09-26T05:16:51.359Z,4.28
2023-09-26T05:19:19.589Z,4.40
2023-09-26T05:21:47.902Z,4.05
2023-09-26T05:24:17.524Z,5.03
2023-09-26T05:26:45.899Z,4.90
2023-09-26T05:29:14.099Z,4.38
2023-09-26T05:31:42.450Z,4.95
2023-09-26T05:34:10.802Z,5.32
2023-09-26T05:36:39.086Z,5.38
2023-09-26T05:39:08.019Z,5.25
2023-09-26T05:41:37.526Z,4.88
2023-09-26T05:44:05.958Z,4.90
2023-09-26T05:46:34.230Z,4.32
2023-09-26T05:49:02.504Z,4.95
2023-09-26T05:51:30.607Z,4.30
2023-09-26T05:53:58.726Z,4.13
2023-09-26T05:56:26.866Z,4.70
2023-09-26T05:58:56.381Z,4.88
2023-09-26T06:01:24.570Z,4.78
2023-09-26T06:03:53.447Z,4.80
2023-09-26T06:06:21.887Z,4.60
2023-09-26T06:08:50.003Z,5.32
2023-09-26T06:11:18.132Z,4.90
2023-09-26T06:13:46.938Z,4.72
2023-09-26T06:16:17.711Z,4.72
2023-09-26T06:18:46.001Z,5.28
2023-09-26T06:21:15.370Z,4.65
2023-09-26T06:23:43.590Z,4.80
2023-09-26T06:26:11.799Z,4.70
2023-09-26T06:28:40.050Z,4.65
2023-09-26T06:31:09.354Z,4.20
2023-09-26T06:33:39.512Z,4.50
2023-09-26T06:36:14.417Z,4.43
2023-09-26T06:38:42.875Z,5.13
2023-09-26T06:41:11.025Z,4.45
2023-09-26T06:43:39.157Z,4.90
2023-09-26T06:46:08.203Z,5.13
2023-09-26T06:48:38.523Z,4.05
2023-09-26T06:51:09.648Z,4.45
2023-09-26T06:53:38.755Z,4.70
2023-09-26T06:56:08.513Z,4.53
2023-09-26T06:58:37.813Z,4.35
2023-09-26T07:01:13.274Z,4.50
2023-09-26T07:03:41.656Z,4.60
2023-09-26T07:06:12.351Z,5.00
2023-09-26T07:08:42.047Z,5.68
2023-09-26T07:11:11.592Z,5.55
2023-09-26T07:16:11.551Z,4.88
2023-09-26T07:18:39.821Z,5.50
2023-09-26T07:21:09.315Z,5.22
2023-09-26T07:23:39.974Z,3.90
2023-09-26T07:26:11.045Z,3.95
2023-09-26T07:28:41.376Z,4.45
2023-09-26T07:31:10.737Z,3.70
2023-09-26T07:33:39.845Z,3.80
2023-09-26T07:36:08.999Z,4.00
2023-09-26T07:38:38.635Z,3.92
2023-09-26T07:41:07.053Z,4.00
2023-09-26T07:43:35.566Z,3.90
2023-09-26T07:46:07.435Z,4.25
2023-09-26T07:48:36.502Z,5.15
2023-09-26T07:51:05.235Z,4.50
2023-09-26T07:53:33.304Z,4.78
2023-09-26T07:56:02.889Z,4.35
2023-09-26T07:58:31.046Z,4.53
2023-09-26T08:01:02.070Z,4.47
2023-09-26T08:03:30.633Z,4.03
2023-09-26T08:06:02.367Z,4.03
2023-09-26T08:08:31.489Z,4.20
2023-09-26T08:11:08.591Z,4.25
2023-09-26T08:13:37.761Z,4.38
2023-09-26T08:16:06.899Z,4.30
2023-09-26T08:18:35.174Z,4.05
2023-09-26T08:21:03.364Z,4.15
2023-09-26T08:23:31.717Z,4.85
2023-09-26T08:26:00.244Z,4.28
2023-09-26T08:28:30.285Z,4.15
2023-09-26T08:30:58.765Z,4.28
2023-09-26T08:33:27.588Z,4.50
2023-09-26T08:35:55.690Z,4.35
2023-09-26T08:38:23.794Z,4.18
2023-09-26T08:40:52.954Z,4.60
2023-09-26T08:43:26.262Z,4.60
2023-09-26T08:45:56.328Z,4.53
2023-09-26T08:48:25.242Z,4.60
2023-09-26T08:50:54.258Z,4.82
2023-09-26T08:53:22.704Z,4.18
2023-09-26T08:55:51.469Z,4.45
2023-09-26T08:58:21.949Z,4.07
2023-09-26T09:00:50.724Z,4.57
2023-09-26T09:03:20.788Z,4.40
2023-09-26T09:05:49.132Z,4.75
2023-09-26T09:08:21.665Z,4.55
2023-09-26T09:10:51.194Z,4.35
2023-09-26T09:13:29.551Z,4.63
2023-09-26T09:16:20.301Z,3.97
2023-09-26T09:18:53.424Z,4.22
2023-09-26T09:21:24.331Z,4.40
2023-09-26T09:23:53.490Z,4.38
2023-09-26T09:26:21.841Z,4.25
2023-09-26T09:28:50.296Z,4.47
2023-09-26T09:31:18.878Z,4.63
2023-09-26T09:33:50.516Z,4.35
2023-09-26T09:36:18.615Z,4.10
2023-09-26T09:38:46.768Z,4.20
2023-09-26T09:41:15.154Z,4.30
2023-09-26T09:43:43.477Z,4.25
2023-09-26T09:46:12.170Z,4.57
2023-09-26T09:48:44.716Z,4.35
2023-09-26T09:51:15.936Z,4.53
2023-09-26T09:53:46.429Z,4.47
2023-09-26T09:56:20.145Z,4.57
2023-09-26T09:58:54.319Z,4.15
2023-09-26T10:01:24.334Z,4.25
2023-09-26T10:03:54.438Z,4.38
2023-09-26T10:06:25.001Z,4.13
2023-09-26T10:08:55.162Z,4.10
2023-09-26T10:11:25.282Z,4.40
2023-09-26T10:13:53.656Z,4.28
2023-09-26T10:16:22.125Z,3.67
2023-09-26T10:18:52.553Z,4.30
2023-09-26T10:21:31.286Z,4.25
2023-09-26T10:24:30.627Z,3.95
2023-09-26T10:27:13.719Z,4.35
2023-09-26T10:29:55.948Z,4.63
2023-09-26T10:32:30.382Z,4.03
2023-09-26T10:35:00.029Z,4.28
2023-09-26T10:37:29.876Z,4.05
2023-09-26T10:39:58.341Z,4.18
2023-09-26T10:44:58.844Z,4.25
2023-09-26T10:47:27.112Z,4.72
2023-09-26T10:49:58.214Z,4.10
2023-09-26T10:52:31.750Z,4.18
2023-09-26T10:55:00.279Z,3.83
2023-09-26T10:57:28.625Z,4.03
2023-09-26T10:59:56.896Z,4.00
2023-09-26T11:02:25.315Z,4.18
2023-09-26T11:04:54.350Z,4.20
2023-09-26T11:07:23.327Z,4.00
2023-09-26T11:09:53.177Z,3.88
2023-09-26T11:12:21.733Z,4.05
2023-09-26T11:14:49.795Z,4.40
2023-09-26T11:17:17.925Z,4.50
2023-09-26T11:19:46.108Z,3.97
2023-09-26T11:22:14.311Z,4.30
2023-09-26T11:24:42.423Z,4.25
2023-09-26T11:27:12.615Z,4.80
2023-09-26T11:29:42.777Z,3.72
2023-09-26T11:32:12.011Z,4.40
2023-09-26T11:34:42.932Z,4.43
2023-09-26T11:37:11.238Z,3.90
2023-09-26T11:39:39.520Z,3.90
2023-09-26T11:42:08.470Z,3.90
2023-09-26T11:44:38.413Z,4.05
2023-09-26T11:47:10.078Z,4.38
2023-09-26T11:49:38.580Z,3.85
2023-09-26T11:52:07.324Z,3.92
2023-09-26T11:54:37.778Z,3.35
2023-09-26T11:57:06.272Z,4.20
2023-09-26T11:59:36.120Z,3.90
2023-09-26T12:02:05.906Z,4.22
2023-09-26T12:04:35.040Z,3.65
2023-09-26T12:07:03.966Z,4.30
2023-09-26T12:09:34.528Z,4.43
2023-09-26T12:12:02.902Z,3.88
2023-09-26T12:14:31.461Z,4.18
2023-09-26T12:17:01.157Z,4.20
2023-09-26T12:19:30.970Z,4.50
2023-09-26T12:21:59.209Z,3.75
2023-09-26T12:24:27.295Z,3.70
2023-09-26T12:26:55.396Z,4.13
2023-09-26T12:29:23.588Z,4.60
2023-09-26T12:31:52.024Z,4.25
2023-09-26T12:34:20.798Z,3.85
2023-09-26T12:36:50.650Z,4.32
2023-09-26T12:39:18.752Z,3.70
2023-09-26T12:41:47.043Z,4.07
2023-09-26T12:44:15.312Z,3.72
2023-09-26T12:46:43.501Z,4.32
2023-09-26T12:49:11.835Z,4.28
2023-09-26T12:51:40.289Z,4.50
2023-09-26T12:54:10.017Z,4.40
2023-09-26T12:56:38.324Z,3.80
2023-09-26T12:59:07.075Z,3.95
2023-09-26T13:01:36.375Z,3.80
2023-09-26T13:04:04.992Z,4.07
2023-09-26T13:06:33.269Z,3.90
2023-09-26T13:09:01.561Z,4.22
2023-09-26T13:11:31.076Z,3.40
2023-09-26T13:13:59.295Z,4.10
2023-09-26T13:16:28.099Z,4.35
2023-09-26T13:18:57.019Z,3.90
2023-09-26T13:21:25.218Z,3.95
2023-09-26T13:23:53.590Z,3.58
2023-09-26T13:26:21.853Z,3.95
2023-09-26T13:28:51.563Z,3.80
2023-09-26T13:31:19.801Z,3.90
2023-09-26T13:33:47.976Z,4.05
2023-09-26T13:36:16.054Z,3.35
2023-09-26T13:38:44.313Z,3.38
2023-09-26T13:41:12.799Z,3.78
2023-09-26T13:43:41.122Z,3.95
2023-09-26T13:46:10.805Z,3.42
2023-09-26T13:48:39.059Z,3.50
2023-09-26T13:51:07.868Z,3.38
2023-09-26T13:53:36.508Z,3.25
2023-09-26T13:56:04.720Z,3.63
2023-09-26T13:58:32.915Z,3.67
2023-09-26T14:01:01.099Z,3.58
2023-09-26T14:03:32.475Z,3.30
2023-09-26T14:06:01.281Z,3.40
2023-09-26T14:08:29.461Z,3.10
2023-09-26T14:10:57.741Z,3.60
2023-09-26T14:13:26.040Z,3.38
2023-09-26T14:15:54.600Z,2.85
2023-09-26T14:18:22.877Z,3.05
2023-09-26T14:20:53.268Z,3.40
2023-09-26T14:23:24.871Z,3.42
2023-09-26T14:25:54.346Z,3.58
2023-09-26T14:28:22.816Z,3.83
2023-09-26T14:30:51.140Z,3.20
2023-09-26T14:33:19.717Z,3.13
2023-09-26T14:35:48.504Z,2.95
2023-09-26T14:38:18.806Z,3.25
2023-09-26T14:40:49.405Z,3.05
2023-09-26T14:43:17.664Z,3.22
2023-09-26T14:45:52.924Z,3.50
2023-09-26T14:48:22.018Z,2.78
2023-09-26T14:50:51.199Z,3.20
2023-09-26T14:53:21.258Z,3.28
2023-09-26T14:55:49.738Z,2.42
2023-09-26T14:58:17.946Z,3.50
2023-09-26T15:00:48.105Z,2.50
2023-09-26T15:03:17.010Z,3.20
2023-09-26T15:05:45.671Z,3.15
2023-09-26T15:08:14.042Z,3.30
2023-09-26T15:10:43.832Z,3.42
2023-09-26T15:13:13.637Z,2.88
2023-09-26T15:15:42.012Z,3.15
2023-09-26T15:18:10.248Z,3.00
2023-09-26T15:20:40.577Z,3.08
2023-09-26T15:23:12.161Z,2.90
2023-09-26T15:25:40.348Z,3.40
2023-09-26T15:28:14.346Z,2.70
2023-09-26T15:30:42.618Z,2.72
2023-09-26T15:33:11.039Z,2.25
2023-09-26T15:35:40.535Z,2.92
2023-09-26T15:38:09.366Z,3.10
2023-09-26T15:40:37.647Z,2.95
2023-09-26T15:43:06.497Z,3.10
2023-09-26T15:45:36.190Z,3.17
2023-09-26T15:48:05.406Z,2.92
2023-09-26T15:50:33.683Z,2.95
2023-09-26T15:53:02.036Z,3.00
2023-09-26T15:55:30.323Z,3.17
2023-09-26T15:57:58.447Z,3.05
2023-09-26T16:00:26.550Z,2.83
2023-09-26T16:02:56.070Z,3.65
2023-09-26T16:05:24.316Z,2.65
2023-09-26T16:07:52.687Z,2.30
2023-09-26T16:10:21.519Z,2.85
2023-09-26T16:15:29.518Z,3.13
2023-09-26T16:18:00.815Z,3.00
2023-09-26T16:20:29.251Z,2.88
2023-09-26T16:22:58.017Z,3.58
2023-09-26T16:25:26.299Z,3.05
2023-09-26T16:27:54.549Z,3.17
2023-09-26T16:30:22.930Z,2.72
2023-09-26T16:32:51.357Z,3.03
2023-09-26T16:35:21.326Z,3.03
2023-09-26T16:37:49.968Z,3.67
2023-09-26T16:40:18.202Z,3.03
2023-09-26T16:42:46.434Z,3.17
2023-09-26T16:45:15.130Z,2.88
2023-09-26T16:47:45.891Z,3.40
2023-09-26T16:50:15.487Z,3.20
2023-09-26T16:52:45.261Z,3.08
2023-09-26T16:55:13.562Z,10.20
2023-09-26T16:57:43.782Z,3.25
2023-09-26T17:00:15.727Z,4.63
2023-09-26T17:02:44.219Z,3.38
2023-09-26T17:05:13.115Z,3.58
2023-09-26T17:07:42.741Z,3.25
2023-09-26T17:10:12.952Z,2.90
2023-09-26T17:12:41.248Z,3.10
2023-09-26T17:15:10.190Z,2.90
2023-09-26T17:17:39.549Z,2.55
2023-09-26T17:20:09.121Z,3.28
2023-09-26T17:22:37.527Z,2.97
2023-09-26T17:25:06.447Z,3.45
2023-09-26T17:27:37.208Z,3.22
2023-09-26T17:30:08.069Z,3.10
2023-09-26T17:32:37.251Z,3.20
2023-09-26T17:35:06.248Z,2.90
2023-09-26T17:37:34.674Z,2.97
2023-09-26T17:40:02.892Z,3.30
2023-09-26T17:42:35.330Z,2.80
2023-09-26T17:45:04.280Z,2.95
2023-09-26T17:47:32.540Z,3.22
2023-09-26T17:50:00.839Z,2.85
2023-09-26T17:52:29.159Z,2.78
2023-09-26T17:54:57.443Z,3.10
2023-09-26T17:57:25.809Z,2.83
2023-09-26T17:59:55.979Z,2.90
2023-09-26T18:02:24.294Z,2.97
2023-09-26T18:04:55.828Z,2.97
2023-09-26T18:07:24.430Z,3.05
2023-09-26T18:09:52.684Z,3.10
2023-09-26T18:12:20.930Z,2.95
2023-09-26T18:14:49.180Z,3.40
2023-09-26T18:17:19.007Z,3.38
2023-09-26T18:19:47.471Z,3.03
2023-09-26T18:22:15.766Z,3.05
2023-09-26T18:24:44.054Z,3.03
2023-09-26T18:27:12.357Z,3.00
2023-09-26T18:29:40.613Z,2.90
2023-09-26T18:32:08.974Z,3.47
2023-09-26T18:34:38.619Z,3.20
2023-09-26T18:37:06.921Z,3.05
2023-09-26T18:39:35.224Z,3.58
2023-09-26T18:42:04.681Z,2.97
2023-09-26T18:44:32.926Z,3.22
2023-09-26T18:47:01.211Z,2.55
2023-09-26T18:49:29.579Z,3.63
2023-09-26T18:51:59.230Z,3.22
2023-09-26T18:54:27.594Z,3.17
2023-09-26T18:56:57.123Z,3.38
2023-09-26T18:59:25.865Z,3.05
2023-09-26T19:01:54.306Z,3.22
2023-09-26T19:04:22.941Z,3.30
2023-09-26T19:06:51.286Z,3.75
2023-09-26T19:09:20.892Z,2.88
2023-09-26T19:11:51.032Z,3.50
2023-09-26T19:14:19.272Z,3.42
2023-09-26T19:16:47.574Z,3.40
2023-09-26T19:19:15.771Z,3.38
2023-09-26T19:21:44.429Z,3.60
2023-09-26T19:24:13.027Z,3.75
2023-09-26T19:26:43.930Z,3.75
2023-09-26T19:29:12.268Z,3.35
2023-09-26T19:31:41.535Z,3.55
2023-09-26T19:34:09.911Z,3.67
2023-09-26T19:36:38.184Z,3.53
2023-09-26T19:39:06.547Z,4.00
2023-09-26T19:41:34.791Z,3.80
2023-09-26T19:44:04.784Z,3.63
2023-09-26T19:46:33.128Z,3.63
2023-09-26T19:49:01.319Z,3.58
2023-09-26T19:51:29.623Z,3.60
2023-09-26T19:53:58.205Z,3.47
2023-09-26T19:56:27.164Z,4.13
2023-09-26T19:58:55.821Z,4.05
2023-09-26T20:01:26.969Z,3.55
2023-09-26T20:03:55.696Z,3.60
2023-09-26T20:06:24.356Z,3.45
2023-09-26T20:08:55.718Z,3.58
2023-09-26T20:11:24.382Z,3.05
2023-09-26T20:13:52.706Z,3.70
2023-09-26T20:16:21.143Z,3.58
2023-09-26T20:18:50.845Z,3.60
2023-09-26T20:21:19.207Z,3.70
2023-09-26T20:23:48.028Z,3.50
2023-09-26T20:26:16.311Z,3.42
2023-09-26T20:28:46.137Z,3.38
2023-09-26T20:31:17.011Z,3.25
2023-09-26T20:33:46.938Z,3.58
2023-09-26T20:36:16.592Z,3.72
2023-09-26T20:38:44.667Z,4.00
2023-09-26T20:41:12.987Z,3.78
2023-09-26T20:43:41.453Z,3.90
2023-09-26T20:46:10.452Z,3.50
2023-09-26T20:48:38.766Z,3.67
2023-09-26T20:51:07.266Z,4.10
2023-09-26T20:53:36.837Z,3.80
2023-09-26T20:56:06.403Z,4.30
2023-09-26T20:58:34.946Z,4.28
2023-09-26T21:01:10.008Z,3.90
2023-09-26T21:03:38.708Z,4.07
2023-09-26T21:06:10.776Z,4.30
2023-09-26T21:08:40.600Z,3.63
2023-09-26T21:11:08.797Z,3.58
2023-09-26T21:13:37.084Z,3.55
2023-09-26T21:16:10.521Z,3.78
2023-09-26T21:18:40.528Z,3.83
2023-09-26T21:21:09.337Z,4.05
2023-09-26T21:23:37.709Z,3.55
2023-09-26T21:26:11.568Z,3.67
2023-09-26T21:28:40.360Z,3.90
2023-09-26T21:31:08.635Z,3.50
2023-09-26T21:33:37.887Z,3.38
2023-09-26T21:36:07.394Z,3.17
2023-09-26T21:38:36.462Z,3.63
2023-09-26T21:41:04.891Z,3.78
2023-09-26T21:43:34.514Z,4.10
2023-09-26T21:46:02.828Z,4.60
2023-09-26T21:48:31.056Z,3.53
2023-09-26T21:50:59.383Z,4.00
2023-09-26T21:53:27.494Z,4.03
2023-09-26T21:55:55.919Z,3.70
2023-09-26T21:58:24.135Z,3.25
2023-09-26T22:00:53.641Z,4.53
2023-09-26T22:03:21.842Z,4.15
2023-09-26T22:05:50.061Z,3.53
2023-09-26T22:08:18.369Z,3.45
2023-09-26T22:10:47.046Z,3.33
2023-09-26T22:13:15.103Z,3.50
2023-09-26T22:15:43.303Z,3.97
2023-09-26T22:18:12.903Z,3.58
2023-09-26T22:20:41.144Z,3.58
2023-09-26T22:23:09.264Z,3.50
2023-09-26T22:25:37.440Z,3.70
2023-09-26T22:28:05.941Z,3.60
2023-09-26T22:30:34.342Z,4.07
2023-09-26T22:33:02.907Z,3.47
2023-09-26T22:35:32.623Z,3.72
2023-09-26T22:38:00.771Z,3.67
2023-09-26T22:40:40.093Z,3.63
2023-09-26T22:43:16.678Z,3.75
2023-09-26T22:45:44.966Z,3.75
2023-09-26T22:48:14.800Z,3.65
2023-09-26T22:50:44.395Z,3.83
2023-09-26T22:53:12.473Z,3.58
2023-09-26T22:55:40.816Z,3.38
2023-09-26T22:58:09.692Z,3.80
2023-09-26T23:00:37.843Z,4.20
2023-09-26T23:03:06.685Z,4.03
2023-09-26T23:05:37.082Z,3.65
2023-09-26T23:08:07.666Z,3.85
2023-09-26T23:10:36.572Z,3.95
2023-09-26T23:13:04.924Z,3.90
2023-09-26T23:15:33.056Z,4.22
2023-09-26T23:18:01.280Z,3.70
2023-09-26T23:20:29.531Z,3.95
2023-09-26T23:22:57.711Z,3.90
2023-09-26T23:25:27.621Z,3.95
2023-09-26T23:27:55.700Z,4.05
2023-09-26T23:30:24.478Z,3.97
2023-09-26T23:32:52.661Z,4.45
2023-09-26T23:35:21.350Z,3.63
2023-09-26T23:37:50.326Z,4.47
2023-09-26T23:40:20.277Z,3.92
2023-09-26T23:42:49.864Z,3.97
2023-09-26T23:45:18.389Z,4.25
2023-09-26T23:47:46.518Z,3.85
2023-09-26T23:50:16.270Z,4.63
2023-09-26T23:52:45.379Z,4.55
2023-09-26T23:55:14.625Z,4.40
2023-09-26T23:57:42.864Z,4.10
